sensor_id;sensor_type;location;lat;lon;timestamp;pressure;altitude;pressure_sealevel;temperature;humidity
10618;BME280;5356;43.526;26.534;2023-04-10T00:00:08;99370.06;;;9.43;93.29
10618;BME280;5356;43.526;26.534;2023-04-10T00:02:34;99369.28;;;9.30;94.83
10618;BME280;5356;43.526;26.534;2023-04-10T00:05:01;99368.25;;;9.24;94.97
10618;BME280;5356;43.526;26.534;2023-04-10T00:07:27;99360.69;;;9.28;94.90
10618;BME280;5356;43.526;26.534;2023-04-10T00:09:53;99366.00;;;9.28;94.92
10618;BME280;5356;43.526;26.534;2023-04-10T00:12:19;99362.34;;;9.29;94.39
10618;BME280;5356;43.526;26.534;2023-04-10T00:14:45;99364.38;;;9.27;95.14
10618;BME280;5356;43.526;26.534;2023-04-10T00:17:11;99356.41;;;9.27;95.28
10618;BME280;5356;43.526;26.534;2023-04-10T00:19:39;99353.94;;;9.25;94.80
10618;BME280;5356;43.526;26.534;2023-04-10T00:22:04;99352.75;;;9.14;95.62
10618;BME280;5356;43.526;26.534;2023-04-10T00:24:30;99352.13;;;8.99;96.36
10618;BME280;5356;43.526;26.534;2023-04-10T00:26:56;99353.56;;;8.95;96.14
10618;BME280;5356;43.526;26.534;2023-04-10T00:29:22;99355.81;;;8.85;96.90
10618;BME280;5356;43.526;26.534;2023-04-10T00:31:47;99343.16;;;8.87;97.11
10618;BME280;5356;43.526;26.534;2023-04-10T00:34:14;99345.19;;;8.98;96.79
10618;BME280;5356;43.526;26.534;2023-04-10T00:36:39;99348.84;;;8.97;96.87
10618;BME280;5356;43.526;26.534;2023-04-10T00:39:05;99335.56;;;8.97;96.88
10618;BME280;5356;43.526;26.534;2023-04-10T00:41:31;99343.75;;;9.02;96.87
10618;BME280;5356;43.526;26.534;2023-04-10T00:43:57;99339.66;;;9.06;96.89
10618;BME280;5356;43.526;26.534;2023-04-10T00:46:23;99336.38;;;9.04;95.84
10618;BME280;5356;43.526;26.534;2023-04-10T00:48:50;99329.66;;;8.95;96.43
10618;BME280;5356;43.526;26.534;2023-04-10T00:51:16;99335.78;;;8.82;96.14
10618;BME280;5356;43.526;26.534;2023-04-10T00:53:48;99329.44;;;8.76;97.07
10618;BME280;5356;43.526;26.534;2023-04-10T00:56:16;99329.25;;;8.78;97.50
10618;BME280;5356;43.526;26.534;2023-04-10T00:58:42;99328.44;;;8.84;97.39
10618;BME280;5356;43.526;26.534;2023-04-10T01:01:08;99326.59;;;8.85;97.13
10618;BME280;5356;43.526;26.534;2023-04-10T01:03:34;99329.66;;;8.82;96.95
10618;BME280;5356;43.526;26.534;2023-04-10T01:08:59;99328.63;;;8.69;96.95
10618;BME280;5356;43.526;26.534;2023-04-10T01:11:50;99325.56;;;8.59;97.59
10618;BME280;5356;43.526;26.534;2023-04-10T01:17:38;99318.22;;;8.61;97.70
10618;BME280;5356;43.526;26.534;2023-04-10T01:30:41;99320.44;;;8.51;98.72
10618;BME280;5356;43.526;26.534;2023-04-10T01:33:11;99316.16;;;8.57;98.95
10618;BME280;5356;43.526;26.534;2023-04-10T01:35:40;99321.88;;;8.60;98.45
10618;BME280;5356;43.526;26.534;2023-04-10T01:38:08;99316.56;;;8.47;99.19
10618;BME280;5356;43.526;26.534;2023-04-10T01:40:38;99309.97;;;8.29;99.59
10618;BME280;5356;43.526;26.534;2023-04-10T01:43:06;99317.72;;;8.31;99.71
10618;BME280;5356;43.526;26.534;2023-04-10T01:45:32;99318.53;;;8.31;99.92
10618;BME280;5356;43.526;26.534;2023-04-10T01:47:58;99321.41;;;8.37;99.93
10618;BME280;5356;43.526;26.534;2023-04-10T01:50:25;99331.59;;;8.26;99.83
10618;BME280;5356;43.526;26.534;2023-04-10T01:52:53;99327.13;;;8.27;100.00
10618;BME280;5356;43.526;26.534;2023-04-10T01:55:22;99325.47;;;8.26;100.00
10618;BME280;5356;43.526;26.534;2023-04-10T01:57:48;99332.00;;;8.17;100.00
10618;BME280;5356;43.526;26.534;2023-04-10T02:00:15;99323.00;;;8.18;100.00
10618;BME280;5356;43.526;26.534;2023-04-10T02:02:41;99325.69;;;8.24;100.00
10618;BME280;5356;43.526;26.534;2023-04-10T02:05:08;99318.31;;;8.13;100.00
10618;BME280;5356;43.526;26.534;2023-04-10T02:07:45;99326.06;;;8.15;100.00
10618;BME280;5356;43.526;26.534;2023-04-10T02:10:19;99323.44;;;8.21;100.00
10618;BME280;5356;43.526;26.534;2023-04-10T02:13:00;99319.97;;;8.27;100.00
10618;BME280;5356;43.526;26.534;2023-04-10T02:15:30;99317.31;;;8.27;100.00
10618;BME280;5356;43.526;26.534;2023-04-10T02:17:58;99325.88;;;8.16;100.00
10618;BME280;5356;43.526;26.534;2023-04-10T02:20:25;99318.53;;;8.18;100.00
10618;BME280;5356;43.526;26.534;2023-04-10T02:22:52;99316.69;;;8.25;100.00
10618;BME280;5356;43.526;26.534;2023-04-10T02:25:18;99320.38;;;8.24;100.00
10618;BME280;5356;43.526;26.534;2023-04-10T02:27:43;99321.19;;;8.18;100.00
10618;BME280;5356;43.526;26.534;2023-04-10T02:30:09;99315.25;;;8.16;100.00
10618;BME280;5356;43.526;26.534;2023-04-10T02:32:35;99307.28;;;8.16;100.00
10618;BME280;5356;43.526;26.534;2023-04-10T02:35:01;99319.13;;;8.20;100.00
10618;BME280;5356;43.526;26.534;2023-04-10T02:37:27;99312.81;;;8.21;100.00
10618;BME280;5356;43.526;26.534;2023-04-10T02:39:53;99311.97;;;8.14;100.00
10618;BME280;5356;43.526;26.534;2023-04-10T02:42:21;99309.50;;;7.99;100.00
10618;BME280;5356;43.526;26.534;2023-04-10T02:44:47;99303.94;;;7.87;100.00
10618;BME280;5356;43.526;26.534;2023-04-10T02:47:13;99309.03;;;7.82;100.00
10618;BME280;5356;43.526;26.534;2023-04-10T02:49:38;99293.75;;;7.84;100.00
10618;BME280;5356;43.526;26.534;2023-04-10T02:52:04;99302.53;;;7.92;100.00
10618;BME280;5356;43.526;26.534;2023-04-10T02:54:30;99300.50;;;7.94;100.00
10618;BME280;5356;43.526;26.534;2023-04-10T02:56:56;99302.16;;;8.01;100.00
10618;BME280;5356;43.526;26.534;2023-04-10T02:59:24;99297.66;;;8.02;100.00
10618;BME280;5356;43.526;26.534;2023-04-10T03:01:50;99297.22;;;7.92;100.00
10618;BME280;5356;43.526;26.534;2023-04-10T03:04:16;99300.03;;;7.83;100.00
10618;BME280;5356;43.526;26.534;2023-04-10T03:06:43;99301.25;;;7.74;100.00
10618;BME280;5356;43.526;26.534;2023-04-10T03:09:08;99301.44;;;7.73;100.00
10618;BME280;5356;43.526;26.534;2023-04-10T03:11:34;99296.13;;;7.73;100.00
10618;BME280;5356;43.526;26.534;2023-04-10T03:13:59;99291.44;;;7.68;100.00
10618;BME280;5356;43.526;26.534;2023-04-10T03:16:25;99299.41;;;7.68;100.00
10618;BME280;5356;43.526;26.534;2023-04-10T03:18:51;99295.22;;;7.52;100.00
10618;BME280;5356;43.526;26.534;2023-04-10T03:21:17;99297.50;;;7.55;100.00
10618;BME280;5356;43.526;26.534;2023-04-10T03:23:43;99300.91;;;7.42;100.00
10618;BME280;5356;43.526;26.534;2023-04-10T03:26:08;99303.94;;;7.39;100.00
10618;BME280;5356;43.526;26.534;2023-04-10T03:28:34;99304.34;;;7.36;100.00
10618;BME280;5356;43.526;26.534;2023-04-10T03:31:04;99300.66;;;7.31;100.00
10618;BME280;5356;43.526;26.534;2023-04-10T03:37:14;99293.69;;;7.30;100.00
10618;BME280;5356;43.526;26.534;2023-04-10T03:39:40;99300.19;;;7.27;100.00
10618;BME280;5356;43.526;26.534;2023-04-10T03:42:08;99296.03;;;7.11;100.00
10618;BME280;5356;43.526;26.534;2023-04-10T03:44:34;99313.53;;;7.06;100.00
10618;BME280;5356;43.526;26.534;2023-04-10T03:47:00;99305.81;;;7.11;100.00
10618;BME280;5356;43.526;26.534;2023-04-10T03:49:29;99314.03;;;7.23;100.00
10618;BME280;5356;43.526;26.534;2023-04-10T03:51:55;99310.88;;;7.40;100.00
10618;BME280;5356;43.526;26.534;2023-04-10T03:54:26;99309.28;;;7.46;100.00
10618;BME280;5356;43.526;26.534;2023-04-10T03:57:10;99313.75;;;7.46;100.00
10618;BME280;5356;43.526;26.534;2023-04-10T03:59:41;99312.13;;;7.45;100.00
10618;BME280;5356;43.526;26.534;2023-04-10T04:02:10;99302.66;;;7.29;100.00
10618;BME280;5356;43.526;26.534;2023-04-10T04:04:39;99315.34;;;7.33;100.00
10618;BME280;5356;43.526;26.534;2023-04-10T04:07:43;99309.19;;;7.33;100.00
10618;BME280;5356;43.526;26.534;2023-04-10T04:10:37;99312.09;;;7.38;100.00
10618;BME280;5356;43.526;26.534;2023-04-10T04:13:17;99311.69;;;7.41;100.00
10618;BME280;5356;43.526;26.534;2023-04-10T04:15:48;99319.06;;;7.46;100.00
10618;BME280;5356;43.526;26.534;2023-04-10T04:18:58;99317.03;;;7.48;100.00
10618;BME280;5356;43.526;26.534;2023-04-10T04:21:42;99322.19;;;7.56;100.00
10618;BME280;5356;43.526;26.534;2023-04-10T04:25:06;99314.03;;;7.64;100.00
10618;BME280;5356;43.526;26.534;2023-04-10T04:28:06;99318.13;;;7.60;100.00
10618;BME280;5356;43.526;26.534;2023-04-10T04:30:48;99313.03;;;7.65;100.00
10618;BME280;5356;43.526;26.534;2023-04-10T04:33:19;99318.38;;;7.72;100.00
10618;BME280;5356;43.526;26.534;2023-04-10T04:35:58;99321.25;;;7.77;100.00
10618;BME280;5356;43.526;26.534;2023-04-10T04:42:42;99323.75;;;7.92;100.00
10618;BME280;5356;43.526;26.534;2023-04-10T04:45:50;99335.22;;;7.99;100.00
10618;BME280;5356;43.526;26.534;2023-04-10T04:48:41;99319.72;;;8.09;100.00
10618;BME280;5356;43.526;26.534;2023-04-10T04:51:19;99323.03;;;8.31;100.00
10618;BME280;5356;43.526;26.534;2023-04-10T04:53:48;99327.16;;;8.40;100.00
10618;BME280;5356;43.526;26.534;2023-04-10T04:56:14;99328.00;;;8.41;100.00
10618;BME280;5356;43.526;26.534;2023-04-10T04:58:39;99324.53;;;8.47;100.00
10618;BME280;5356;43.526;26.534;2023-04-10T05:01:06;99316.56;;;8.47;100.00
10618;BME280;5356;43.526;26.534;2023-04-10T05:03:31;99329.66;;;8.55;100.00
10618;BME280;5356;43.526;26.534;2023-04-10T05:05:57;99326.59;;;8.58;100.00
10618;BME280;5356;43.526;26.534;2023-04-10T05:08:23;99328.44;;;8.64;100.00
10618;BME280;5356;43.526;26.534;2023-04-10T05:10:48;99317.41;;;8.67;100.00
10618;BME280;5356;43.526;26.534;2023-04-10T05:13:14;99320.25;;;8.72;100.00
10618;BME280;5356;43.526;26.534;2023-04-10T05:15:42;99323.13;;;8.77;100.00
10618;BME280;5356;43.526;26.534;2023-04-10T05:18:08;99329.25;;;8.85;100.00
10618;BME280;5356;43.526;26.534;2023-04-10T05:20:34;99327.78;;;8.89;100.00
10618;BME280;5356;43.526;26.534;2023-04-10T05:23:03;99325.78;;;8.77;100.00
10618;BME280;5356;43.526;26.534;2023-04-10T05:25:32;99327.00;;;8.75;100.00
10618;BME280;5356;43.526;26.534;2023-04-10T05:27:57;99329.63;;;8.88;100.00
10618;BME280;5356;43.526;26.534;2023-04-10T05:30:23;99336.19;;;8.99;100.00
10618;BME280;5356;43.526;26.534;2023-04-10T05:32:49;99333.34;;;9.01;100.00
10618;BME280;5356;43.526;26.534;2023-04-10T05:35:14;99332.69;;;9.05;100.00
10618;BME280;5356;43.526;26.534;2023-04-10T05:37:46;99332.50;;;9.13;100.00
10618;BME280;5356;43.526;26.534;2023-04-10T05:40:12;99333.31;;;9.20;100.00
10618;BME280;5356;43.526;26.534;2023-04-10T05:42:37;99334.50;;;9.25;100.00
10618;BME280;5356;43.526;26.534;2023-04-10T05:45:03;99331.19;;;9.42;100.00
10618;BME280;5356;43.526;26.534;2023-04-10T05:47:28;99337.06;;;9.64;100.00
10618;BME280;5356;43.526;26.534;2023-04-10T05:49:55;99329.47;;;9.75;100.00
10618;BME280;5356;43.526;26.534;2023-04-10T05:52:20;99332.75;;;9.77;100.00
10618;BME280;5356;43.526;26.534;2023-04-10T05:54:46;99339.66;;;9.84;100.00
10618;BME280;5356;43.526;26.534;2023-04-10T05:57:11;99331.09;;;9.82;100.00
10618;BME280;5356;43.526;26.534;2023-04-10T05:59:37;99335.34;;;9.90;100.00
10618;BME280;5356;43.526;26.534;2023-04-10T06:02:02;99330.16;;;10.02;100.00
10618;BME280;5356;43.526;26.534;2023-04-10T06:04:28;99328.91;;;10.11;100.00
10618;BME280;5356;43.526;26.534;2023-04-10T06:06:53;99331.72;;;10.23;100.00
10618;BME280;5356;43.526;26.534;2023-04-10T06:09:19;99339.78;;;10.48;100.00
10618;BME280;5356;43.526;26.534;2023-04-10T06:11:46;99335.31;;;10.67;100.00
10618;BME280;5356;43.526;26.534;2023-04-10T06:14:12;99334.06;;;10.76;100.00
10618;BME280;5356;43.526;26.534;2023-04-10T06:16:37;99344.00;;;10.87;100.00
10618;BME280;5356;43.526;26.534;2023-04-10T06:19:03;99330.94;;;11.04;100.00
10618;BME280;5356;43.526;26.534;2023-04-10T06:21:28;99323.81;;;10.98;100.00
10618;BME280;5356;43.526;26.534;2023-04-10T06:23:54;99323.75;;;11.05;100.00
10618;BME280;5356;43.526;26.534;2023-04-10T06:26:19;99329.03;;;11.11;100.00
10618;BME280;5356;43.526;26.534;2023-04-10T06:28:45;99330.34;;;11.02;100.00
10618;BME280;5356;43.526;26.534;2023-04-10T06:31:11;99332.03;;;10.96;100.00
10618;BME280;5356;43.526;26.534;2023-04-10T06:33:36;99328.03;;;11.06;100.00
10618;BME280;5356;43.526;26.534;2023-04-10T06:36:02;99328.81;;;11.13;100.00
10618;BME280;5356;43.526;26.534;2023-04-10T06:38:28;99328.91;;;11.24;100.00
10618;BME280;5356;43.526;26.534;2023-04-10T06:40:54;99326.75;;;11.33;100.00
10618;BME280;5356;43.526;26.534;2023-04-10T06:43:20;99326.06;;;11.38;100.00
10618;BME280;5356;43.526;26.534;2023-04-10T06:45:45;99326.06;;;11.38;100.00
10618;BME280;5356;43.526;26.534;2023-04-10T06:48:11;99317.66;;;11.41;100.00
10618;BME280;5356;43.526;26.534;2023-04-10T06:50:36;99326.03;;;11.44;100.00
